Dades meteomassalio
Diari Summary for Febrer 21, 2017 Units:  Metric    English   Both
« Previous Day
Next Day »
Diari Semanal Mensual Anual Personalitzat
  Maxima: Minima: Mijana:
Temperatura: -17.8 °C -17.5 °C -13.8 °C
Rosada: -17.8 °C -18.1 °C -15.9 °C
Humitat: Humidity % 50 % 79 %
Velocitat del vent: 0 km/h 0 km/h 4.5 km/h
Racha vent: 0 km/h - -
Vent:- - West
Pressio: 0 hPa 34669.3 hPa -
Pluja: 7.62 mm    
Historical Graphs
 
 
Tabular Data for Febrer 21, 2017
Time Temperature Dew Point Pressure Wind Wind Speed Wind Gust Humidity Rainfall Rate (Hourly) solar Conditions
-17.8 °C -17.8 °C 0 hPa Calm     Humidity % 0 mm SolarRadiationWatts/m^2 W/m2 Conditions
00:03 -15.8 °C -16.7 °C 34818.2 hPa Calm     90 % 0 mm 0.0 W/m2 RA
00:08 -15.9 °C -16.7 °C 34818.2 hPa Calm     91 % 0 mm 0.0 W/m2 CLR
00:13 -16 °C -16.7 °C 34818.2 hPa Calm     91 % 0 mm 0.0 W/m2 CLR
00:18 -16.1 °C -16.8 °C 34818.2 hPa Calm     91 % 0 mm 0.0 W/m2 CLR
00:23 -16.2 °C -16.9 °C 34818.2 hPa Calm     91 % 0 mm 0.0 W/m2 CLR
00:28 -16.2 °C -16.9 °C 34818.2 hPa Calm     91 % 0 mm 0.0 W/m2 CLR
00:33 -16.1 °C -16.8 °C 34818.2 hPa Calm     92 % 0 mm 0.0 W/m2 CLR
00:38 -16.2 °C -16.9 °C 34818.2 hPa Calm     91 % 0 mm 0.0 W/m2 CLR
00:43 -16.2 °C -17 °C 34818.2 hPa Calm     91 % 0 mm 0.0 W/m2 CLR
00:48 -16.3 °C -16.9 °C 34818.2 hPa Calm     92 % 0 mm 0.0 W/m2 CLR
00:53 -16.3 °C -16.9 °C 34818.2 hPa Calm     92 % 0 mm 0.0 W/m2 CLR
00:58 -16.3 °C -16.9 °C 34818.2 hPa Calm     92 % 0 mm 0.0 W/m2 CLR
01:03 -16.2 °C -16.9 °C 34818.2 hPa Calm     92 % 0 mm 0.0 W/m2 CLR
01:08 -16.2 °C -16.9 °C 34818.2 hPa Calm     92 % 0 mm 0.0 W/m2 CLR
01:13 -16.3 °C -17.1 °C 34818.2 hPa Calm     91 % 0 mm 0.0 W/m2 CLR
01:18 -16.4 °C -17.1 °C 34818.2 hPa Calm     92 % 0 mm 0.0 W/m2 CLR
01:23 -16.3 °C -16.8 °C 34818.2 hPa Calm     93 % 0 mm 0.0 W/m2 CLR
01:29 -16.2 °C -16.8 °C 34818.2 hPa Calm     92 % 0 mm 0.0 W/m2 CLR
01:34 -16.1 °C -16.6 °C 34818.2 hPa Calm     93 % 0 mm 0.0 W/m2 CLR
01:39 -16 °C -16.6 °C 34818.2 hPa Calm     92 % 0 mm 0.0 W/m2 CLR
01:44 -16.1 °C -16.7 °C 34818.2 hPa Calm     92 % 0 mm 0.0 W/m2 CLR
01:49 -16.1 °C -16.8 °C 34818.2 hPa Calm     92 % 0 mm 0.0 W/m2 CLR
01:54 -16.1 °C -16.8 °C 34818.2 hPa Calm     92 % 0 mm 0.0 W/m2 CLR
01:59 -16.2 °C -16.8 °C 34818.2 hPa Calm     92 % 0 mm 0.0 W/m2 CLR
02:04 -16.3 °C -16.9 °C 34818.2 hPa Calm     92 % 0 mm 0.0 W/m2 CLR
02:09 -16.3 °C -16.9 °C 34818.2 hPa Calm     92 % 0 mm 0.0 W/m2 CLR
02:14 -16.3 °C -17 °C 34818.2 hPa Calm     92 % 0 mm 0.0 W/m2 CLR
02:19 -16.3 °C -16.8 °C 34818.2 hPa Calm     93 % 0 mm 0.0 W/m2 CLR
02:24 -16.3 °C -17 °C 34818.2 hPa Calm     92 % 0 mm 0.0 W/m2 CLR
02:29 -16.3 °C -17 °C 34831.8 hPa Calm     92 % 0 mm 0.0 W/m2 CLR
02:34 -16.4 °C -17.1 °C 34831.8 hPa Calm     92 % 0 mm 0.0 W/m2 CLR
02:39 -16.4 °C -17.1 °C 34831.8 hPa Calm     92 % 0 mm 0.0 W/m2 CLR
02:44 -16.5 °C -17.1 °C 34831.8 hPa Calm     92 % 0 mm 0.0 W/m2 CLR
02:49 -16.6 °C -17.3 °C 34831.8 hPa Calm     92 % 0 mm 0.0 W/m2 CLR
02:54 -16.7 °C -17.3 °C 34818.2 hPa Calm     92 % 0 mm 0.0 W/m2 CLR
02:59 -16.8 °C -17.4 °C 34831.8 hPa Calm     92 % 0 mm 0.0 W/m2 CLR
03:04 -16.8 °C -17.4 °C 34831.8 hPa Calm     92 % 0 mm 0.0 W/m2 CLR
03:09 -16.8 °C -17.4 °C 34818.2 hPa Calm     92 % 0 mm 0.0 W/m2 CLR
03:14 -16.8 °C -17.4 °C 34818.2 hPa Calm     92 % 0 mm 0.0 W/m2 CLR
03:19 -16.8 °C -17.4 °C 34818.2 hPa Calm     93 % 0 mm 0.0 W/m2 CLR
03:24 -16.9 °C -17.6 °C 34818.2 hPa Calm     92 % 0 mm 0.0 W/m2 CLR
03:29 -16.9 °C -17.6 °C 34818.2 hPa Calm     92 % 0 mm 0.0 W/m2 CLR
03:34 -16.9 °C -17.4 °C 34818.2 hPa Calm     93 % 0 mm 0.0 W/m2 CLR
03:39 -16.9 °C -17.4 °C 34818.2 hPa Calm     93 % 0 mm 0.0 W/m2 CLR
03:44 -17 °C -17.6 °C 34818.2 hPa Calm     92 % 0 mm 0.0 W/m2 CLR
03:49 -17.1 °C -17.6 °C 34818.2 hPa Calm     93 % 0 mm 0.0 W/m2 CLR
03:54 -17.1 °C -17.7 °C 34808.1 hPa Calm     93 % 0 mm 0.0 W/m2 CLR
03:59 -17.1 °C -17.7 °C 34818.2 hPa Calm     93 % 0 mm 0.0 W/m2 CLR
04:04 -17.2 °C -17.7 °C 34818.2 hPa Calm     93 % 0 mm 0.0 W/m2 CLR
04:09 -17.1 °C -17.7 °C 34818.2 hPa Calm     93 % 0 mm 0.0 W/m2 CLR
04:14 -17.1 °C -17.7 °C 34818.2 hPa Calm     93 % 0 mm 0.0 W/m2 CLR
04:19 -17.1 °C -17.7 °C 34818.2 hPa Calm     93 % 0 mm 0.0 W/m2 CLR
04:24 -17.2 °C -17.7 °C 34818.2 hPa Calm     93 % 0 mm 0.0 W/m2 CLR
04:29 -17.2 °C -17.7 °C 34818.2 hPa Calm     93 % 0 mm 0.0 W/m2 CLR
04:34 -17.3 °C -17.8 °C 34818.2 hPa Calm     93 % 0 mm 0.0 W/m2 CLR
04:39 -17.1 °C -17.7 °C 34818.2 hPa Calm     93 % 0 mm 0.0 W/m2 CLR
04:44 -16.9 °C -17.5 °C 34818.2 hPa Calm     93 % 0 mm 0.0 W/m2 CLR
04:49 -17 °C -17.6 °C 34818.2 hPa Calm     93 % 0 mm 0.0 W/m2 CLR
04:54 -17 °C -17.6 °C 34818.2 hPa Calm     93 % 0 mm 0.0 W/m2 CLR
04:59 -17.1 °C -17.6 °C 34818.2 hPa Calm     93 % 0 mm 0.0 W/m2 CLR
05:04 -17.1 °C -17.6 °C 34808.1 hPa Calm     93 % 0 mm 0.0 W/m2 CLR
05:09 -17.1 °C -17.6 °C 34808.1 hPa Calm     93 % 0 mm 0.0 W/m2 CLR
05:14 -17 °C -17.6 °C 34818.2 hPa Calm     93 % 0 mm 0.0 W/m2 CLR
05:19 -16.9 °C -17.4 °C 34808.1 hPa Calm     94 % 0 mm 0.0 W/m2 CLR
05:24 -17 °C -17.6 °C 34808.1 hPa Calm     93 % 0 mm 0.0 W/m2 CLR
05:29 -17.1 °C -17.6 °C 34808.1 hPa Calm     93 % 0 mm 0.0 W/m2 CLR
05:34 -17.1 °C -17.7 °C 34808.1 hPa Calm     93 % 0 mm 0.0 W/m2 CLR
05:39 -17.2 °C -17.7 °C 34818.2 hPa Calm     93 % 0 mm 0.0 W/m2 CLR
05:44 -17.2 °C -17.7 °C 34818.2 hPa Calm     93 % 0 mm 0.0 W/m2 CLR
05:49 -17.1 °C -17.7 °C 34818.2 hPa Calm     93 % 0 mm 0.0 W/m2 CLR
05:54 -17.1 °C -17.7 °C 34818.2 hPa Calm     93 % 0 mm 0.0 W/m2 CLR
05:59 -17.2 °C -17.7 °C 34818.2 hPa Calm     93 % 0 mm 0.0 W/m2 CLR
06:05 -17.2 °C -17.7 °C 34818.2 hPa Calm     93 % 0 mm 0.0 W/m2 CLR
06:10 -17.2 °C -17.8 °C 34818.2 hPa Calm     93 % 0 mm 0.0 W/m2 CLR
06:15 -17.2 °C -17.7 °C 34818.2 hPa Calm     93 % 0 mm 0.0 W/m2 CLR
06:20 -17.2 °C -17.7 °C 34818.2 hPa Calm     93 % 0 mm 0.0 W/m2 CLR
06:25 -17.2 °C -17.7 °C 34818.2 hPa Calm     93 % 0 mm 0.0 W/m2 CLR
06:30 -17.2 °C -17.8 °C 34818.2 hPa Calm     93 % 0 mm 0.0 W/m2 CLR
06:35 -17.3 °C -17.9 °C 34818.2 hPa Calm     93 % 0 mm 0.0 W/m2 CLR
06:40 -17.3 °C -17.9 °C 34818.2 hPa Calm     93 % 0 mm 0.0 W/m2 CLR
06:45 -17.3 °C -17.8 °C 34818.2 hPa Calm     93 % 0 mm 0.0 W/m2 CLR
06:50 -17.2 °C -17.7 °C 34818.2 hPa Calm     94 % 0 mm 0.0 W/m2 CLR
06:55 -17.2 °C -17.7 °C 34818.2 hPa Calm     94 % 0 mm 0.0 W/m2 CLR
07:00 -17.3 °C -17.8 °C 34818.2 hPa Calm     93 % 0 mm 0.0 W/m2 CLR
07:05 -17.4 °C -17.9 °C 34818.2 hPa Calm     93 % 0 mm 0.0 W/m2 CLR
07:10 -17.4 °C -17.9 °C 34818.2 hPa Calm     93 % 0 mm 0.0 W/m2 CLR
07:15 -17.3 °C -17.8 °C 34818.2 hPa Calm     94 % 0 mm 0.0 W/m2 CLR
07:20 -17.3 °C -17.7 °C 34818.2 hPa Calm     94 % 0 mm 0.0 W/m2 CLR
07:25 -17.3 °C -17.7 °C 34831.8 hPa Calm     94 % 0 mm 0.0 W/m2 CLR
07:30 -17.3 °C -17.8 °C 34818.2 hPa Calm     93 % 0 mm 0.0 W/m2 CLR
07:35 -17.3 °C -17.9 °C 34831.8 hPa Calm     93 % 0 mm 0.0 W/m2 CLR
07:40 -17.4 °C -17.9 °C 34831.8 hPa Calm     93 % 0 mm 0.0 W/m2 OVC
07:45 -17.4 °C -17.9 °C 34831.8 hPa Calm     93 % 0 mm 5.0 W/m2 OVC
07:50 -17.4 °C -18 °C 34831.8 hPa Calm     93 % 0 mm 7.0 W/m2 BKN
07:55 -17.4 °C -17.9 °C 34831.8 hPa Calm     94 % 0 mm 9.0 W/m2 BKN
08:00 -17.5 °C -18.1 °C 34831.8 hPa Calm     93 % 0 mm 12.0 W/m2 BKN
08:05 -17.4 °C -18 °C 34831.8 hPa Calm     93 % 0 mm 16.0 W/m2 BKN
08:10 -17.4 °C -17.9 °C 34841.9 hPa Calm     94 % 0 mm 21.0 W/m2 BKN
08:15 -17.3 °C -17.8 °C 34841.9 hPa Calm     94 % 0 mm 28.0 W/m2 BKN
08:20 -17.2 °C -17.6 °C 34841.9 hPa Calm     94 % 0 mm 37.0 W/m2 BKN
08:25 -17.1 °C -17.6 °C 34841.9 hPa Calm     94 % 0 mm 46.0 W/m2 BKN
08:30 -17.1 °C -17.5 °C 34841.9 hPa Calm     94 % 0 mm 62.0 W/m2 SCT
08:35 -16.9 °C -17.4 °C 34841.9 hPa Calm     94 % 0 mm 76.0 W/m2 FEW
08:40 -16.9 °C -17.4 °C 34841.9 hPa Calm     94 % 0 mm 88.0 W/m2 CLR
08:45 -16.7 °C -17.2 °C 34841.9 hPa Calm     94 % 7.62 mm 104.0 W/m2 RA
08:50 -16.6 °C -17.1 °C 34841.9 hPa Calm     94 % 7.62 mm 111.0 W/m2 CLR
08:55 -16.5 °C -17 °C 34841.9 hPa Calm     94 % 7.62 mm 135.0 W/m2 CLR
09:00 -16.3 °C -16.8 °C 34841.9 hPa Calm     94 % 7.62 mm 151.0 W/m2 CLR
09:05 -16.1 °C -16.6 °C 34831.8 hPa Calm     94 % 7.62 mm 146.0 W/m2 CLR
09:10 -15.9 °C -16.4 °C 34831.8 hPa Calm     94 % 7.62 mm 132.0 W/m2 CLR
09:15 -15.8 °C -16.3 °C 34831.8 hPa Calm     93 % 7.62 mm 116.0 W/m2 CLR
09:20 -15.7 °C -16.3 °C 34831.8 hPa Calm     93 % 7.62 mm 221.0 W/m2 CLR
09:25 -15.4 °C -16 °C 34841.9 hPa Calm     93 % 7.62 mm 239.0 W/m2 CLR
09:30 -15.2 °C -15.7 °C 34831.8 hPa Calm     93 % 7.62 mm 257.0 W/m2 CLR
09:35 -14.9 °C -15.5 °C 34831.8 hPa Calm     93 % 7.62 mm 271.0 W/m2 CLR
09:40 -14.7 °C -15.3 °C 34831.8 hPa Calm     92 % 7.62 mm 285.0 W/m2 CLR
09:45 -14.4 °C -15.1 °C 34831.8 hPa Calm     92 % 0 mm 297.0 W/m2 CLR
09:50 -14.2 °C -15 °C 34831.8 hPa Calm     90 % 0 mm 311.0 W/m2 CLR
09:55 -13.9 °C -14.8 °C 34831.8 hPa Calm     90 % 0 mm 325.0 W/m2 CLR
10:00 -13.8 °C -14.8 °C 34831.8 hPa Calm     88 % 0 mm 338.0 W/m2 CLR
10:05 -13.7 °C -14.8 °C 34831.8 hPa Calm     87 % 0 mm 350.0 W/m2 CLR
10:10 -13.4 °C -14.7 °C 34818.2 hPa Calm     86 % 0 mm 366.0 W/m2 CLR
10:15 -13.2 °C -14.4 °C 34818.2 hPa Calm     86 % 0 mm 376.0 W/m2 CLR
10:20 -13 °C -14.4 °C 34818.2 hPa Calm     84 % 0 mm 383.0 W/m2 CLR
10:25 -12.8 °C -14.4 °C 34818.2 hPa Calm     82 % 0 mm 397.0 W/m2 CLR
10:30 -12.6 °C -14.4 °C 34818.2 hPa West 11.9 km/h 11.9 km/h 80 % 0 mm 415.0 W/m2 CLR
10:35 -12.3 °C -14.4 °C 34818.2 hPa NW 23.8 km/h 23.8 km/h 78 % 0 mm 425.0 W/m2 CLR
10:41 -12.3 °C -14.6 °C 34808.1 hPa West 23.8 km/h 23.8 km/h 75 % 0 mm 438.0 W/m2 CLR
10:46 -12.1 °C -14.4 °C 34808.1 hPa WNW 17.9 km/h 18.8 km/h 76 % 0 mm 450.0 W/m2 CLR
10:51 -12.1 °C -14.4 °C 34808.1 hPa WNW 15 km/h 15 km/h 75 % 0 mm 462.0 W/m2 CLR
10:56 -12 °C -14.3 °C 34808.1 hPa WNW 20.9 km/h 20.9 km/h 75 % 0 mm 473.0 W/m2 CLR
11:01 -11.9 °C -14.5 °C 34808.1 hPa WNW 15 km/h 15 km/h 73 % 0 mm 483.0 W/m2 CLR
11:11 -11.8 °C -14.7 °C 34808.1 hPa WNW 17.9 km/h 17.9 km/h 70 % 0 mm 506.0 W/m2 CLR
11:16 -11.7 °C -14.3 °C 34797.9 hPa WNW 18.2 km/h 18.2 km/h 72 % 0 mm 513.0 W/m2 CLR
11:21 -11.6 °C -14.6 °C 34797.9 hPa WSW 20.8 km/h 20.8 km/h 70 % 0 mm 522.0 W/m2 CLR
11:26 -11.6 °C -14.6 °C 34797.9 hPa NW 17.9 km/h 17.9 km/h 69 % 0 mm 534.0 W/m2 CLR
11:31 -11.4 °C -14.3 °C 34797.9 hPa West 17.9 km/h 17.9 km/h 70 % 0 mm 540.0 W/m2 CLR
11:36 -11.3 °C -14.2 °C 34797.9 hPa NW 20.9 km/h 20.9 km/h 70 % 0 mm 550.0 W/m2 CLR
11:41 -11.2 °C -14.6 °C 34797.9 hPa West 15 km/h 15 km/h 67 % 0 mm 555.0 W/m2 CLR
11:46 -11.2 °C -14.6 °C 34797.9 hPa NW 23.8 km/h 23.8 km/h 67 % 0 mm 563.0 W/m2 CLR
11:51 -11.2 °C -14.4 °C 34797.9 hPa WNW 17.9 km/h 17.9 km/h 68 % 0 mm 571.0 W/m2 CLR
11:56 -11.2 °C -14.3 °C 34797.9 hPa NW 20.9 km/h 20.9 km/h 68 % 0 mm 578.0 W/m2 CLR
12:01 -11.1 °C -14.4 °C 34797.9 hPa WNW 23.8 km/h 23.8 km/h 67 % 0 mm 584.0 W/m2 CLR
12:06 -11.1 °C -14.5 °C 34797.9 hPa NNW 17.9 km/h 17.9 km/h 66 % 0 mm 589.0 W/m2 CLR
12:11 -10.9 °C -14.1 °C 34797.9 hPa NW 26.9 km/h 26.9 km/h 68 % 0 mm 594.0 W/m2 CLR
12:16 -10.9 °C -14.4 °C 34784.4 hPa NW 23.3 km/h 23.3 km/h 65 % 0 mm 603.0 W/m2 CLR
12:21 -10.9 °C -14.3 °C 34784.4 hPa NW 26.9 km/h 26.9 km/h 66 % 0 mm 603.0 W/m2 CLR
12:26 -10.9 °C -14.4 °C 34784.4 hPa NNW 11.9 km/h 11.9 km/h 65 % 0 mm 612.0 W/m2 CLR
12:31 -10.8 °C -14.4 °C 34784.4 hPa WNW 23.8 km/h 23.8 km/h 65 % 0 mm 615.0 W/m2 CLR
12:36 -10.8 °C -14.2 °C 34784.4 hPa NW 20.9 km/h 20.9 km/h 66 % 0 mm 617.0 W/m2 CLR
12:41 -10.7 °C -14.6 °C 34784.4 hPa NNW 20.9 km/h 20.9 km/h 63 % 0 mm 621.0 W/m2 CLR
12:46 -10.7 °C -14.6 °C 34774.2 hPa NW 15 km/h 15 km/h 62 % 0 mm 622.0 W/m2 CLR
12:51 -10.6 °C -14.3 °C 34774.2 hPa NNW 2.6 km/h 2.6 km/h 64 % 0 mm 628.0 W/m2 CLR
12:56 -10.6 °C -14.5 °C 34774.2 hPa WNW 15 km/h 15 km/h 62 % 0 mm 628.0 W/m2 CLR
13:01 -10.4 °C -14.3 °C 34774.2 hPa NNW 6 km/h   63 % 0 mm 629.0 W/m2 CLR
13:06 -10.4 °C -14.4 °C 34774.2 hPa WNW 23.8 km/h 23.8 km/h 62 % 0 mm 631.0 W/m2 CLR
13:11 -10.4 °C -14.3 °C 34760.7 hPa West 15.6 km/h 15.6 km/h 62 % 0 mm 631.0 W/m2 CLR
13:16 -10.4 °C -14.2 °C 34760.7 hPa Calm     63 % 0 mm 633.0 W/m2 CLR
13:21 -10.2 °C -14.1 °C 34760.7 hPa NNW 11.9 km/h 11.9 km/h 63 % 0 mm 628.0 W/m2 CLR
13:26 -10.2 °C -14.2 °C 34760.7 hPa NNW 20.9 km/h 20.9 km/h 62 % 0 mm 628.0 W/m2 CLR
13:31 -10.1 °C -14 °C 34750.5 hPa North 20.9 km/h 20.9 km/h 63 % 0 mm 628.0 W/m2 CLR
13:36 -10.1 °C -14 °C 34750.5 hPa North 17.9 km/h 17.9 km/h 63 % 0 mm 629.0 W/m2 CLR
13:41 -10.1 °C -14 °C 34750.5 hPa NNW 20.8 km/h 20.8 km/h 63 % 0 mm 624.0 W/m2 CLR
13:46 -10.2 °C -14.1 °C 34750.5 hPa North 15 km/h 15 km/h 63 % 0 mm 624.0 W/m2 CLR
13:51 -10.2 °C -13.8 °C 34740.4 hPa NNE 15.6 km/h 15.6 km/h 64 % 0 mm 617.0 W/m2 CLR
13:56 -10.1 °C -13.7 °C 34740.4 hPa North 9 km/h 9 km/h 65 % 0 mm 606.0 W/m2 CLR
14:01 -10.1 °C -13.8 °C 34740.4 hPa NNW 15 km/h 15 km/h 64 % 0 mm 615.0 W/m2 CLR
14:06 -10.1 °C -14 °C 34740.4 hPa NW 12.9 km/h 12.9 km/h 62 % 0 mm 612.0 W/m2 CLR
14:11 -10.1 °C -13.9 °C 34726.8 hPa NNW 11.9 km/h 11.9 km/h 63 % 0 mm 608.0 W/m2 CLR
14:16 -10.1 °C -13.8 °C 34726.8 hPa North 3.1 km/h   64 % 0 mm 605.0 W/m2 CLR
14:21 -9.9 °C -13.8 °C 34716.7 hPa North 15.6 km/h 15.6 km/h 63 % 0 mm 599.0 W/m2 CLR
14:26 -9.8 °C -13.7 °C 34716.7 hPa NNW 11.9 km/h 11.9 km/h 63 % 0 mm 594.0 W/m2 CLR
14:31 -9.8 °C -13.8 °C 34716.7 hPa NW 15 km/h 15 km/h 62 % 0 mm 589.0 W/m2 CLR
14:36 -9.7 °C -13.7 °C 34716.7 hPa West 11.9 km/h 11.9 km/h 62 % 0 mm 582.0 W/m2 CLR
14:41 -9.6 °C -13.8 °C 34716.7 hPa NW 23.3 km/h 23.3 km/h 60 % 0 mm 575.0 W/m2 CLR
14:46 -9.6 °C -14.1 °C 34703.1 hPa NW 18.2 km/h 18.2 km/h 58 % 0 mm 568.0 W/m2 CLR
14:51 -9.6 °C -14.3 °C 34703.1 hPa West 17.9 km/h 17.9 km/h 57 % 0 mm 561.0 W/m2 CLR
14:56 -9.6 °C -14.1 °C 34703.1 hPa Calm     58 % 0 mm 555.0 W/m2 CLR
15:01 -9.5 °C -14.4 °C 34703.1 hPa NNW 15 km/h 15 km/h 55 % 0 mm 545.0 W/m2 CLR
15:06 -9.5 °C -14.5 °C 34703.1 hPa NNW 17.9 km/h 17.9 km/h 55 % 0 mm 540.0 W/m2 CLR
15:11 -9.4 °C -14.6 °C 34703.1 hPa WNW 9 km/h   54 % 0 mm 527.0 W/m2 CLR
15:17 -9.4 °C -14.4 °C 34693 hPa North 17.9 km/h 17.9 km/h 55 % 0 mm 519.0 W/m2 CLR
15:22 -9.5 °C -14.6 °C 34693 hPa North 20.9 km/h 20.9 km/h 54 % 0 mm 510.0 W/m2 CLR
15:27 -9.6 °C -14.6 °C 34693 hPa Calm     55 % 0 mm 497.0 W/m2 CLR
15:32 -9.4 °C -14.4 °C 34693 hPa NNE 11.9 km/h 11.9 km/h 55 % 0 mm 489.0 W/m2 CLR
15:36 -9.3 °C -14.5 °C 34693 hPa Calm     54 % 0 mm 478.0 W/m2 CLR
15:42 -9.3 °C -14.6 °C 34693 hPa NNW 9 km/h 9 km/h 53 % 0 mm 468.0 W/m2 CLR
15:47 -9.2 °C -14.5 °C 34682.8 hPa NW 3.1 km/h   53 % 0 mm 455.0 W/m2 CLR
15:52 -9.1 °C -14.6 °C 34682.8 hPa North 9 km/h 9 km/h 52 % 0 mm 443.0 W/m2 CLR
15:57 -9.1 °C -14.4 °C 34682.8 hPa North 23.8 km/h 23.8 km/h 53 % 0 mm 432.0 W/m2 CLR
16:02 -9.2 °C -14.8 °C 34682.8 hPa North 15 km/h 15 km/h 51 % 0 mm 418.0 W/m2 CLR
16:07 -9.3 °C -14.7 °C 34682.8 hPa Calm     52 % 0 mm 406.0 W/m2 CLR
16:12 -9.2 °C -14.9 °C 34682.8 hPa NNW 23.3 km/h 23.3 km/h 50 % 0 mm 394.0 W/m2 CLR
16:17 -9.3 °C -15.1 °C 34682.8 hPa North 12.9 km/h 12.9 km/h 50 % 0 mm 380.0 W/m2 CLR
16:22 -9.2 °C -14.7 °C 34682.8 hPa NNE 15.6 km/h 15.6 km/h 52 % 0 mm 366.0 W/m2 CLR
16:27 -9.2 °C -14.8 °C 34682.8 hPa North 11.9 km/h 11.9 km/h 51 % 0 mm 353.0 W/m2 CLR
16:32 -9.2 °C -14.8 °C 34682.8 hPa NNW 11.9 km/h 11.9 km/h 51 % 0 mm 341.0 W/m2 CLR
16:37 -9.2 °C -14.7 °C 34682.8 hPa NNE 9 km/h 9 km/h 52 % 0 mm 325.0 W/m2 CLR
16:42 -9.3 °C -14.7 °C 34682.8 hPa NNW 15 km/h 15 km/h 52 % 0 mm 311.0 W/m2 CLR
16:47 -9.3 °C -14.4 °C 34669.3 hPa North 17.9 km/h 17.9 km/h 54 % 0 mm 297.0 W/m2 CLR
16:52 -9.3 °C -14.6 °C 34669.3 hPa NNE 3.1 km/h   53 % 0 mm 285.0 W/m2 CLR
16:57 -9.3 °C -14.6 °C 34669.3 hPa NNW 9 km/h 9 km/h 53 % 0 mm 265.0 W/m2 CLR
17:02 -9.3 °C -14.9 °C 34669.3 hPa Calm     51 % 0 mm 251.0 W/m2 CLR
17:07 -9.3 °C -14.6 °C 34669.3 hPa North 9 km/h 9 km/h 53 % 0 mm 234.0 W/m2 CLR
17:12 -9.3 °C -14.5 °C 34669.3 hPa NNW 11.9 km/h 11.9 km/h 54 % 0 mm 216.0 W/m2 CLR
17:17 -9.4 °C -14.8 °C 34669.3 hPa NNE 15 km/h 15 km/h 52 % 0 mm 195.0 W/m2 CLR
17:22 -9.5 °C -14.8 °C 34669.3 hPa North 12.9 km/h 12.9 km/h 53 % 0 mm 178.0 W/m2 CLR
17:27 -9.6 °C -14.9 °C 34669.3 hPa NNE 11.9 km/h 11.9 km/h 53 % 0 mm 162.0 W/m2 CLR
17:32 -9.7 °C -15.1 °C 34669.3 hPa North 9 km/h 9 km/h 52 % 0 mm 144.0 W/m2 CLR
17:37 -9.7 °C -15.1 °C 34669.3 hPa North 10.3 km/h 10.3 km/h 52 % 0 mm 128.0 W/m2 CLR
17:42 -9.8 °C -14.9 °C 34669.3 hPa Calm     54 % 0 mm 109.0 W/m2 CLR
17:47 -9.7 °C -15 °C 34669.3 hPa North 3.1 km/h 3.1 km/h 53 % 0 mm 93.0 W/m2 CLR
17:52 -9.8 °C -15.2 °C 34669.3 hPa Calm     52 % 0 mm 79.0 W/m2 FEW
17:57 -9.8 °C -14.9 °C 34669.3 hPa Calm     54 % 0 mm 58.0 W/m2 SCT
18:02 -9.8 °C -14.7 °C 34669.3 hPa Calm     55 % 0 mm 51.0 W/m2 SCT
18:07 -9.8 °C -14.8 °C 34669.3 hPa Calm     55 % 0 mm 40.0 W/m2 BKN
18:12 -9.9 °C -14.8 °C 34682.8 hPa Calm     55 % 0 mm 28.0 W/m2 BKN
18:17 -9.9 °C -14.8 °C 34682.8 hPa Calm     56 % 0 mm 19.0 W/m2 BKN
18:22 -10.1 °C -14.7 °C 34682.8 hPa Calm     57 % 0 mm 14.0 W/m2 BKN
18:27 -10.3 °C -14.9 °C 34682.8 hPa Calm     57 % 0 mm 12.0 W/m2 BKN
18:32 -10.4 °C -14.8 °C 34682.8 hPa Calm     59 % 0 mm 9.0 W/m2 BKN
18:37 -10.7 °C -14.8 °C 34682.8 hPa Calm     60 % 0 mm 7.0 W/m2 BKN
18:42 -10.8 °C -14.9 °C 34682.8 hPa Calm     61 % 0 mm 0.0 W/m2 OVC
18:47 -10.9 °C -14.8 °C 34682.8 hPa Calm     62 % 0 mm 0.0 W/m2 OVC
18:52 -11.1 °C -14.9 °C 34682.8 hPa Calm     63 % 0 mm 0.0 W/m2 CLR
18:57 -11.3 °C -14.8 °C 34682.8 hPa Calm     65 % 0 mm 0.0 W/m2 CLR
19:02 -11.4 °C -14.9 °C 34682.8 hPa Calm     65 % 0 mm 0.0 W/m2 CLR
19:07 -11.6 °C -14.8 °C 34693 hPa Calm     67 % 0 mm 0.0 W/m2 CLR
19:12 -11.8 °C -14.9 °C 34682.8 hPa Calm     68 % 0 mm 0.0 W/m2 CLR
19:17 -11.9 °C -14.9 °C 34693 hPa Calm     69 % 0 mm 0.0 W/m2 CLR
19:22 -12.1 °C -14.9 °C 34693 hPa Calm     71 % 0 mm 0.0 W/m2 CLR
19:27 -12.3 °C -15 °C 34693 hPa Calm     72 % 0 mm 0.0 W/m2 CLR
19:32 -12.5 °C -15.1 °C 34693 hPa Calm     73 % 0 mm 0.0 W/m2 CLR
19:37 -12.7 °C -15.1 °C 34693 hPa Calm     74 % 0 mm 0.0 W/m2 CLR
19:42 -12.8 °C -15.1 °C 34703.1 hPa Calm     76 % 0 mm 0.0 W/m2 CLR
19:47 -13 °C -15.1 °C 34703.1 hPa SW 9 km/h 9 km/h 77 % 0 mm 0.0 W/m2 CLR
19:52 -13.2 °C -15.2 °C 34703.1 hPa Calm     77 % 0 mm 0.0 W/m2 CLR
19:57 -13.3 °C -15.3 °C 34703.1 hPa Calm     78 % 0 mm 0.0 W/m2 CLR
20:02 -13.4 °C -15.3 °C 34703.1 hPa SW 3.1 km/h 3.1 km/h 79 % 0 mm 0.0 W/m2 CLR
20:07 -13.4 °C -15.3 °C 34703.1 hPa Calm     79 % 0 mm 0.0 W/m2 CLR
20:12 -13.6 °C -15.3 °C 34703.1 hPa Calm     80 % 0 mm 0.0 W/m2 CLR
20:17 -13.6 °C -15.4 °C 34703.1 hPa Calm     80 % 0 mm 0.0 W/m2 CLR
20:22 -13.7 °C -15.4 °C 34703.1 hPa Calm   0.3 km/h 81 % 0 mm 0.0 W/m2 CLR
20:27 -13.8 °C -15.4 °C 34703.1 hPa SW 9 km/h 9 km/h 81 % 0 mm 0.0 W/m2 CLR
20:32 -13.9 °C -15.5 °C 34703.1 hPa SW 9 km/h 9 km/h 82 % 0 mm 0.0 W/m2 CLR
20:37 -13.9 °C -15.6 °C 34716.7 hPa Calm     82 % 0 mm 0.0 W/m2 CLR
20:42 -14 °C -15.6 °C 34716.7 hPa Calm     82 % 0 mm 0.0 W/m2 CLR
20:47 -14.1 °C -15.6 °C 34716.7 hPa Calm   0.3 km/h 83 % 0 mm 0.0 W/m2 CLR
20:52 -14.2 °C -15.7 °C 34716.7 hPa Calm     83 % 0 mm 0.0 W/m2 CLR
20:57 -14.2 °C -15.6 °C 34716.7 hPa Calm     84 % 0 mm 0.0 W/m2 CLR
21:02 -14.3 °C -15.7 °C 34716.7 hPa Calm     84 % 0 mm 0.0 W/m2 CLR
21:07 -14.3 °C -15.7 °C 34716.7 hPa Calm     84 % 0 mm 0.0 W/m2 CLR
21:12 -14.4 °C -15.8 °C 34716.7 hPa Calm     84 % 0 mm 0.0 W/m2 CLR
21:13 -14.4 °C -15.8 °C 34716.7 hPa Calm     84 % 0 mm 0.0 W/m2 CLR
21:18 -14.5 °C -15.8 °C 34716.7 hPa Calm     85 % 0 mm 0.0 W/m2 CLR
21:23 -14.6 °C -15.8 °C 34716.7 hPa Calm     85 % 0 mm 0.0 W/m2 CLR
21:28 -14.6 °C -15.9 °C 34716.7 hPa Calm     85 % 0 mm 0.0 W/m2 CLR
21:33 -14.7 °C -15.9 °C 34716.7 hPa Calm     86 % 0 mm 0.0 W/m2 CLR
21:38 -14.7 °C -15.9 °C 34716.7 hPa Calm     86 % 0 mm 0.0 W/m2 CLR
21:43 -14.7 °C -15.9 °C 34716.7 hPa Calm     86 % 0 mm 0.0 W/m2 CLR
21:48 -14.7 °C -15.9 °C 34716.7 hPa Calm     86 % 0 mm 0.0 W/m2 CLR
21:53 -14.7 °C -15.9 °C 34726.8 hPa Calm     86 % 0 mm 0.0 W/m2 CLR
21:58 -14.8 °C -15.9 °C 34726.8 hPa Calm     86 % 0 mm 0.0 W/m2 CLR
22:03 -14.8 °C -16.2 °C 34726.8 hPa Calm     85 % 0 mm 0.0 W/m2 CLR
22:08 -14.9 °C -16.1 °C 34726.8 hPa WSW 6 km/h 6 km/h 86 % 0 mm 0.0 W/m2 CLR
22:13 -14.9 °C -16 °C 34726.8 hPa SW 6 km/h   87 % 0 mm 0.0 W/m2 CLR
22:18 -14.9 °C -16.1 °C 34726.8 hPa Calm     86 % 0 mm 0.0 W/m2 CLR
22:23 -15 °C -16.2 °C 34726.8 hPa Calm     86 % 0 mm 0.0 W/m2 CLR
22:28 -15.1 °C -16.3 °C 34740.4 hPa Calm     86 % 0 mm 0.0 W/m2 CLR
22:33 -15.2 °C -16.3 °C 34740.4 hPa Calm     87 % 0 mm 0.0 W/m2 CLR
22:38 -15.3 °C -16.3 °C 34740.4 hPa Calm     88 % 0 mm 0.0 W/m2 CLR
22:43 -15.3 °C -16.3 °C 34740.4 hPa Calm     88 % 0 mm 0.0 W/m2 CLR
22:48 -15.4 °C -16.5 °C 34740.4 hPa Calm     87 % 0 mm 0.0 W/m2 CLR
22:53 -15.4 °C -16.5 °C 34740.4 hPa Calm     88 % 0 mm 0.0 W/m2 CLR
22:58 -15.5 °C -16.5 °C 34740.4 hPa SW 3.1 km/h   88 % 0 mm 0.0 W/m2 CLR
23:03 -15.5 °C -16.5 °C 34740.4 hPa Calm     88 % 0 mm 0.0 W/m2 CLR
23:08 -15.6 °C -16.5 °C 34740.4 hPa Calm     89 % 0 mm 0.0 W/m2 CLR
23:13 -15.6 °C -16.5 °C 34740.4 hPa SW 6 km/h   89 % 0 mm 0.0 W/m2 CLR
23:18 -15.6 °C -16.5 °C 34740.4 hPa Calm     89 % 0 mm 0.0 W/m2 CLR
23:23 -15.7 °C -16.6 °C 34740.4 hPa Calm     89 % 0 mm 0.0 W/m2 CLR
23:29 -15.7 °C -16.6 °C 34740.4 hPa Calm     89 % 0 mm 0.0 W/m2 CLR
23:34 -15.7 °C -16.6 °C 34740.4 hPa Calm     89 % 0 mm 0.0 W/m2 CLR
23:39 -15.7 °C -16.7 °C 34740.4 hPa Calm     89 % 0 mm 0.0 W/m2 CLR
23:44 -15.8 °C -16.7 °C 34740.4 hPa Calm     89 % 0 mm 0.0 W/m2 CLR
23:49 -15.8 °C -16.8 °C 34740.4 hPa Calm     89 % 0 mm 0.0 W/m2 CLR
23:54 -15.9 °C -16.7 °C 34740.4 hPa Calm     90 % 0 mm 0.0 W/m2 CLR
23:59 -15.9 °C -16.8 °C 34740.4 hPa Calm     90 % 0 mm 0.0 W/m2 CLR
Lo Temps de Massalio
Compliments of Weather Underground - 1.25 mb